Time;durP1;ratioP1;P1;durP2;ratioP2;P2;SDS_P1;SDS_P2;PMS_P1;PMS_P2;Temp;Humidity;BMP_temperature;BMP_pressure;BME280_temperature;BME280_humidity;BME280_pressure;Samples;Min_cycle;Max_cycle;Signal;HPM_P1;HPM_P2
2022/01/16 00:04:09;;;;;;;4.97;1.93;;;-0.10;77.00;;;;;;5071283;28;20190;-73
2022/01/16 00:06:36;;;;;;;1.80;1.80;;;-0.10;77.40;;;;;;5070430;28;20659;-73
2022/01/16 00:09:03;;;;;;;7.77;2.40;;;-0.10;77.70;;;;;;5072570;28;20178;-73
2022/01/16 00:11:29;;;;;;;3.27;1.97;;;-0.10;78.40;;;;;;5081075;28;20215;-73
2022/01/16 00:13:55;;;;;;;2.63;1.40;;;-0.10;79.00;;;;;;5070366;28;20261;-74
2022/01/16 00:16:22;;;;;;;4.87;2.07;;;-0.10;79.60;;;;;;5071044;28;20289;-73
2022/01/16 00:18:52;;;;;;;2.10;1.97;;;0.00;79.90;;;;;;5073294;28;20182;-74
2022/01/16 00:21:33;;;;;;;3.60;2.37;;;0.00;80.40;;;;;;5072385;28;20194;-72
2022/01/16 00:23:59;;;;;;;1.97;1.83;;;0.00;81.10;;;;;;5068767;28;20262;-73
2022/01/16 00:26:26;;;;;;;3.30;1.40;;;0.00;81.20;;;;;;5069946;28;20240;-73
2022/01/16 00:28:52;;;;;;;1.57;1.37;;;0.00;81.80;;;;;;5075225;28;20178;-74
2022/01/16 00:31:21;;;;;;;2.13;2.03;;;-0.10;82.10;;;;;;5076763;28;20218;-73
2022/01/16 00:33:46;;;;;;;1.70;1.70;;;-0.10;82.30;;;;;;5070213;28;20182;-73
2022/01/16 00:36:18;;;;;;;4.97;2.23;;;-0.10;82.60;;;;;;5068747;28;20187;-73
2022/01/16 00:38:46;;;;;;;2.70;2.50;;;-0.10;82.90;;;;;;5076083;28;20174;-73
2022/01/16 00:41:13;;;;;;;2.10;1.97;;;-0.10;83.20;;;;;;5073365;28;20182;-73
2022/01/16 00:43:39;;;;;;;4.07;1.70;;;-0.10;83.60;;;;;;5072529;28;20246;-73
2022/01/16 00:46:05;;;;;;;2.63;2.43;;;-0.10;83.70;;;;;;5073971;28;20202;-74
2022/01/16 00:48:31;;;;;;;1.93;1.83;;;-0.10;83.60;;;;;;5056548;28;20565;-72
2022/01/16 00:50:56;;;;;;;2.40;2.20;;;-0.10;83.60;;;;;;5070666;28;20221;-73
2022/01/16 00:53:23;;;;;;;3.93;1.90;;;-0.10;83.80;;;;;;5062890;28;20334;-73
2022/01/16 00:55:50;;;;;;;2.07;1.97;;;-0.10;84.10;;;;;;5066676;28;20574;-73
2022/01/16 00:58:15;;;;;;;1.83;1.70;;;-0.20;84.30;;;;;;5072878;28;20198;-75
2022/01/16 01:00:41;;;;;;;3.60;2.47;;;-0.20;84.30;;;;;;5068652;28;20635;-74
2022/01/16 01:03:07;;;;;;;2.97;1.77;;;-0.20;84.40;;;;;;5069999;28;20195;-74
2022/01/16 01:05:36;;;;;;;4.90;2.67;;;-0.20;84.60;;;;;;5072176;28;20231;-74
2022/01/16 01:08:04;;;;;;;1.40;1.30;;;-0.20;84.70;;;;;;5070381;28;20183;-74
2022/01/16 01:10:33;;;;;;;2.13;2.00;;;-0.20;84.90;;;;;;5070446;28;20214;-74
2022/01/16 01:13:10;;;;;;;3.77;1.90;;;-0.20;84.90;;;;;;5070658;28;20208;-74
2022/01/16 01:15:47;;;;;;;5.50;2.27;;;-0.20;85.00;;;;;;5072089;28;20174;-74
2022/01/16 01:18:13;;;;;;;1.40;1.30;;;-0.20;85.00;;;;;;5071971;28;20194;-73
2022/01/16 01:20:41;;;;;;;2.27;2.07;;;-0.20;85.10;;;;;;5069955;28;20194;-74
2022/01/16 01:23:08;;;;;;;2.43;2.17;;;-0.20;85.20;;;;;;5063779;28;20183;-74
2022/01/16 01:25:35;;;;;;;1.50;1.40;;;-0.20;85.10;;;;;;5078983;28;20247;-74
2022/01/16 01:28:00;;;;;;;4.10;2.07;;;-0.20;85.10;;;;;;5064674;28;20183;-73
2022/01/16 01:30:26;;;;;;;3.60;2.00;;;-0.20;85.30;;;;;;5066489;28;20219;-74
2022/01/16 01:32:54;;;;;;;1.30;1.27;;;-0.20;85.20;;;;;;5060634;28;20175;-74
2022/01/16 01:35:21;;;;;;;2.07;1.93;;;-0.20;85.30;;;;;;5063661;28;20260;-73
2022/01/16 01:37:47;;;;;;;2.73;1.53;;;-0.20;85.20;;;;;;5068632;28;20270;-73
2022/01/16 01:40:20;;;;;;;3.00;2.00;;;-0.20;85.20;;;;;;5070692;28;20186;-72
2022/01/16 01:43:03;;;;;;;1.90;1.80;;;-0.20;85.00;;;;;;5072206;28;20273;-72
2022/01/16 01:51:18;;;;;;;1.53;1.43;;;-0.10;84.70;;;;;;5067883;28;21083;-73
2022/01/16 01:53:45;;;;;;;1.33;1.23;;;-0.10;84.60;;;;;;5074000;28;20178;-73
2022/01/16 01:56:13;;;;;;;1.13;1.13;;;-0.10;84.70;;;;;;5072528;28;20305;-73
2022/01/16 01:58:40;;;;;;;2.63;1.57;;;-0.10;85.00;;;;;;5070173;28;20214;-72
2022/01/16 02:01:06;;;;;;;1.97;1.80;;;-0.10;85.20;;;;;;5067148;28;20861;-73
2022/01/16 02:06:14;;;;;;;2.77;1.30;;;-0.20;85.20;;;;;;5066991;28;20195;-73
2022/01/16 02:08:42;;;;;;;2.50;2.13;;;-0.20;85.40;;;;;;5072592;28;20174;-73
2022/01/16 02:11:14;;;;;;;1.93;1.57;;;-0.20;85.70;;;;;;5069456;28;20275;-72
2022/01/16 02:32:59;;;;;;;2.40;1.80;;;-0.30;86.80;;;;;;5068930;28;20244;-73
2022/01/16 02:35:25;;;;;;;2.80;2.57;;;-0.30;87.90;;;;;;5069900;28;20187;-73
2022/01/16 02:37:51;;;;;;;5.73;2.30;;;-0.30;88.70;;;;;;5067950;28;20719;-73
2022/01/16 02:40:21;;;;;;;1.80;1.70;;;-0.40;89.20;;;;;;5069111;28;20191;-73
2022/01/16 02:42:50;;;;;;;7.20;2.67;;;-0.40;89.20;;;;;;5065869;28;20269;-73
2022/01/16 02:45:28;;;;;;;4.17;2.37;;;-0.40;89.60;;;;;;5073646;28;20244;-73
2022/01/16 02:47:58;;;;;;;2.53;2.20;;;-0.50;89.80;;;;;;5073042;28;20536;-73
2022/01/16 02:50:24;;;;;;;4.37;2.23;;;-0.50;90.10;;;;;;5069892;28;20933;-73
2022/01/16 02:52:50;;;;;;;3.03;2.30;;;-0.50;90.30;;;;;;5048106;28;20179;-72
2022/01/16 02:55:20;;;;;;;3.00;2.80;;;-0.60;90.40;;;;;;5064689;28;20184;-73
2022/01/16 02:57:46;;;;;;;3.23;2.33;;;-0.60;90.50;;;;;;5072103;28;20191;-73
2022/01/16 03:00:12;;;;;;;2.47;2.37;;;-0.60;90.50;;;;;;5072478;28;20181;-73
2022/01/16 03:02:38;;;;;;;4.97;2.97;;;-0.60;90.60;;;;;;5072666;28;20932;-73
2022/01/16 03:05:04;;;;;;;2.07;1.93;;;-0.60;90.70;;;;;;5067883;28;20183;-73
2022/01/16 03:07:30;;;;;;;3.60;2.57;;;-0.60;90.70;;;;;;5070535;28;20178;-73
2022/01/16 03:12:49;;;;;;;2.30;1.60;;;-0.50;90.80;;;;;;5067375;28;20589;-73
2022/01/16 03:15:16;;;;;;;2.50;2.07;;;-0.50;90.80;;;;;;5067630;28;20179;-73
2022/01/16 03:21:53;;;;;;;3.37;1.90;;;-0.50;90.80;;;;;;5073134;28;20226;-73
2022/01/16 03:23:22;;;;;;;3.90;2.50;;;-0.40;90.20;;;;;;5075998;28;20695;-73
2022/01/16 03:25:49;;;;;;;1.77;1.77;;;-0.40;90.40;;;;;;5076054;28;20178;-73
2022/01/16 03:28:16;;;;;;;3.80;1.77;;;-0.40;90.10;;;;;;5074117;28;20178;-73
2022/01/16 03:30:42;;;;;;;3.60;2.10;;;-0.40;89.80;;;;;;5073091;28;20217;-72
2022/01/16 03:33:08;;;;;;;4.27;2.63;;;-0.40;90.00;;;;;;5072801;28;20182;-73
2022/01/16 03:35:34;;;;;;;2.47;2.20;;;-0.40;90.00;;;;;;5075305;28;20221;-72
2022/01/16 03:38:00;;;;;;;2.67;2.47;;;-0.50;90.10;;;;;;5071580;28;20275;-72
2022/01/16 03:40:26;;;;;;;2.77;2.57;;;-0.50;90.10;;;;;;5074236;28;20187;-72
2022/01/16 03:42:52;;;;;;;3.13;2.63;;;-0.40;90.10;;;;;;5076638;28;20576;-72
2022/01/16 03:45:18;;;;;;;4.77;2.20;;;-0.40;90.20;;;;;;5070957;28;20174;-74
2022/01/16 03:47:44;;;;;;;2.40;2.20;;;-0.40;90.40;;;;;;5067752;28;20654;-72
2022/01/16 03:50:10;;;;;;;1.93;1.83;;;-0.40;90.20;;;;;;5074953;28;20207;-73
2022/01/16 03:52:36;;;;;;;4.57;2.93;;;-0.40;90.10;;;;;;5069208;28;20178;-73
2022/01/16 03:55:04;;;;;;;2.30;1.93;;;-0.40;89.90;;;;;;5056279;28;20860;-74
2022/01/16 03:57:30;;;;;;;2.60;2.17;;;-0.40;89.70;;;;;;5075421;28;20251;-72
2022/01/16 03:59:56;;;;;;;1.60;1.50;;;-0.40;89.60;;;;;;5068715;28;20189;-73
2022/01/16 04:02:22;;;;;;;3.60;2.87;;;-0.40;89.70;;;;;;5075374;28;20178;-72
2022/01/16 04:04:47;;;;;;;2.43;2.23;;;-0.40;89.50;;;;;;5070304;28;20660;-72
2022/01/16 04:07:19;;;;;;;1.80;1.70;;;-0.40;89.50;;;;;;5070230;28;20182;-72
2022/01/16 04:09:45;;;;;;;2.27;2.07;;;-0.40;89.40;;;;;;5073279;28;20185;-73
2022/01/16 04:12:10;;;;;;;3.03;2.10;;;-0.40;89.30;;;;;;5074620;28;20183;-73
2022/01/16 04:17:16;;;;;;;2.07;1.97;;;-0.50;89.60;;;;;;5077010;28;20178;-73
2022/01/16 04:19:43;;;;;;;1.73;1.63;;;-0.50;89.40;;;;;;5069358;28;20212;-72
2022/01/16 04:22:09;;;;;;;3.57;1.87;;;-0.50;89.60;;;;;;5071446;28;20690;-73
2022/01/16 04:24:35;;;;;;;1.87;1.50;;;-0.50;89.60;;;;;;5070973;28;20183;-73
2022/01/16 04:27:02;;;;;;;2.53;1.97;;;-0.50;89.50;;;;;;5072209;28;20693;-73
2022/01/16 04:29:28;;;;;;;2.53;2.40;;;-0.50;89.70;;;;;;5073789;28;20182;-73
2022/01/16 04:31:53;;;;;;;2.40;2.27;;;-0.50;89.50;;;;;;5072036;28;20211;-73
2022/01/16 04:34:19;;;;;;;2.80;2.60;;;-0.50;89.50;;;;;;5069060;28;20187;-73
2022/01/16 04:36:45;;;;;;;3.03;2.17;;;-0.50;89.40;;;;;;5053227;28;20690;-73
2022/01/16 04:39:17;;;;;;;2.50;2.37;;;-0.50;89.30;;;;;;5071742;28;20182;-73
2022/01/16 04:44:28;;;;;;;1.43;1.33;;;-0.50;89.30;;;;;;5065399;28;20189;-72
2022/01/16 04:46:54;;;;;;;2.23;2.13;;;-0.50;89.20;;;;;;5067398;28;20202;-72
2022/01/16 04:49:20;;;;;;;2.83;2.10;;;-0.50;89.30;;;;;;5069104;28;21385;-73
2022/01/16 04:51:47;;;;;;;2.40;2.30;;;-0.40;89.10;;;;;;5068901;28;20251;-74
2022/01/16 04:54:13;;;;;;;2.17;1.83;;;-0.40;89.00;;;;;;5072929;28;20567;-72
2022/01/16 04:56:39;;;;;;;3.27;1.93;;;-0.40;89.00;;;;;;5074183;28;20206;-72
2022/01/16 04:59:05;;;;;;;2.23;2.13;;;-0.40;88.90;;;;;;5066547;28;20182;-72
2022/01/16 05:01:32;;;;;;;1.70;1.60;;;-0.30;88.80;;;;;;5069102;28;20185;-72
2022/01/16 05:03:58;;;;;;;2.37;2.27;;;-0.30;88.80;;;;;;5068131;28;20186;-72
2022/01/16 05:06:23;;;;;;;2.03;1.83;;;-0.40;88.70;;;;;;5068419;28;20193;-74
2022/01/16 05:08:49;;;;;;;2.90;2.03;;;-0.30;88.60;;;;;;5066841;28;20210;-72
2022/01/16 05:11:20;;;;;;;2.70;2.50;;;-0.30;88.40;;;;;;5069529;28;20218;-73
2022/01/16 05:18:57;;;;;;;1.70;1.70;;;-0.30;88.20;;;;;;5067009;28;20189;-73
2022/01/16 05:21:23;;;;;;;1.93;1.60;;;-0.30;88.10;;;;;;5068733;28;20324;-74
2022/01/16 05:23:49;;;;;;;2.07;1.80;;;-0.30;88.10;;;;;;5066835;28;20195;-73
2022/01/16 05:26:26;;;;;;;1.87;1.77;;;-0.20;88.00;;;;;;5070318;28;20712;-74
2022/01/16 05:28:52;;;;;;;2.20;2.00;;;-0.30;88.00;;;;;;5073782;28;20261;-74
2022/01/16 05:31:18;;;;;;;2.63;2.23;;;-0.20;88.00;;;;;;5069770;28;22191;-74
2022/01/16 05:33:43;;;;;;;2.27;2.07;;;-0.20;88.00;;;;;;5067738;28;20183;-72
2022/01/16 05:36:09;;;;;;;3.10;2.70;;;-0.20;87.90;;;;;;5069293;28;20636;-73
2022/01/16 05:38:35;;;;;;;6.43;2.70;;;-0.10;87.80;;;;;;5070605;28;20190;-74
2022/01/16 05:41:01;;;;;;;2.53;2.33;;;-0.10;87.70;;;;;;5067465;28;20186;-73
2022/01/16 05:43:26;;;;;;;2.03;1.87;;;-0.10;87.70;;;;;;5062497;28;20187;-73
2022/01/16 05:45:52;;;;;;;2.57;2.13;;;0.00;87.50;;;;;;5066760;28;20182;-73
2022/01/16 05:48:18;;;;;;;4.13;2.43;;;0.00;87.30;;;;;;5066699;28;20179;-73
2022/01/16 05:50:44;;;;;;;6.27;2.63;;;0.00;87.40;;;;;;5068362;28;20272;-73
2022/01/16 05:53:09;;;;;;;3.07;2.27;;;-0.10;87.80;;;;;;5071247;28;20182;-74
2022/01/16 05:55:38;;;;;;;4.37;2.73;;;-0.10;88.00;;;;;;5067575;28;20222;-72
2022/01/16 05:58:05;;;;;;;1.73;1.63;;;-0.10;88.00;;;;;;5068980;28;20225;-72
2022/01/16 06:00:32;;;;;;;2.17;2.03;;;-0.10;88.10;;;;;;5069578;28;20620;-74
2022/01/16 06:02:57;;;;;;;2.57;1.77;;;0.00;88.00;;;;;;5069804;28;20189;-72
2022/01/16 06:05:23;;;;;;;2.60;2.40;;;0.10;87.70;;;;;;5067941;28;20893;-74
2022/01/16 06:07:56;;;;;;;4.07;2.70;;;0.10;87.50;;;;;;5070916;28;20182;-75
2022/01/16 06:10:22;;;;;;;6.57;3.03;;;0.10;87.30;;;;;;5074914;28;20292;-73
2022/01/16 06:12:48;;;;;;;2.50;1.80;;;0.20;87.30;;;;;;5069711;28;20731;-72
2022/01/16 06:15:13;;;;;;;2.47;2.27;;;0.30;87.00;;;;;;5073963;28;20695;-76
2022/01/16 06:17:39;;;;;;;3.50;2.53;;;0.30;86.90;;;;;;5072643;28;20171;-73
2022/01/16 06:20:06;;;;;;;3.47;2.63;;;0.30;86.70;;;;;;5068823;28;20264;-76
2022/01/16 06:22:31;;;;;;;6.90;2.33;;;0.30;86.30;;;;;;5070627;28;20183;-74
2022/01/16 06:24:57;;;;;;;3.70;2.83;;;0.30;86.10;;;;;;5067642;28;20672;-72
2022/01/16 06:27:23;;;;;;;2.50;2.13;;;0.30;86.00;;;;;;5070892;28;20375;-74
2022/01/16 06:29:48;;;;;;;2.80;2.20;;;0.30;85.20;;;;;;5070361;28;20663;-73
2022/01/16 06:32:14;;;;;;;1.80;1.60;;;0.20;84.70;;;;;;5074420;28;20189;-73
2022/01/16 06:34:40;;;;;;;2.00;1.90;;;0.20;84.40;;;;;;5068152;28;20968;-72
2022/01/16 06:37:05;;;;;;;4.00;2.30;;;0.10;84.30;;;;;;5057534;28;20191;-72
2022/01/16 06:39:31;;;;;;;4.70;2.13;;;0.10;84.30;;;;;;5067884;28;20198;-72
2022/01/16 06:41:57;;;;;;;1.60;1.50;;;0.10;84.20;;;;;;5073059;28;20178;-73
2022/01/16 06:44:23;;;;;;;1.83;1.73;;;0.10;83.90;;;;;;5053734;28;20194;-74
2022/01/16 06:46:49;;;;;;;2.03;1.93;;;0.10;84.10;;;;;;5066870;28;20297;-72
2022/01/16 06:49:15;;;;;;;1.50;1.20;;;0.10;84.30;;;;;;5067593;28;20193;-74
2022/01/16 06:51:41;;;;;;;1.80;1.73;;;0.20;84.60;;;;;;5075990;28;20736;-74
2022/01/16 06:54:06;;;;;;;3.30;2.43;;;0.20;84.00;;;;;;5063512;28;21831;-74
2022/01/16 06:56:33;;;;;;;3.40;1.67;;;0.20;83.60;;;;;;5072628;28;20175;-73
2022/01/16 06:58:58;;;;;;;2.00;1.90;;;0.10;83.30;;;;;;5076509;28;20178;-74
2022/01/16 07:01:26;;;;;;;1.40;1.40;;;0.20;83.50;;;;;;5072554;28;20632;-73
2022/01/16 07:03:53;;;;;;;3.60;3.10;;;0.20;83.40;;;;;;5067895;28;20211;-74
2022/01/16 07:06:20;;;;;;;2.70;2.50;;;0.20;83.30;;;;;;5078321;28;20178;-74
2022/01/16 07:08:45;;;;;;;2.43;2.23;;;0.30;83.50;;;;;;5070553;28;20257;-74
2022/01/16 07:11:11;;;;;;;2.70;2.50;;;0.40;83.40;;;;;;5069980;28;20293;-74
2022/01/16 07:13:37;;;;;;;3.43;2.87;;;0.40;83.30;;;;;;5074466;28;20189;-74
2022/01/16 07:16:03;;;;;;;2.80;2.53;;;0.50;83.10;;;;;;5075788;28;20186;-73
2022/01/16 07:18:29;;;;;;;3.57;3.10;;;0.50;83.10;;;;;;5072674;28;20857;-74
2022/01/16 07:20:55;;;;;;;4.50;3.10;;;0.70;83.10;;;;;;5078782;28;20956;-73
2022/01/16 07:23:21;;;;;;;3.77;3.23;;;0.70;83.10;;;;;;5073277;28;20179;-73
2022/01/16 07:25:48;;;;;;;3.43;3.13;;;0.80;83.00;;;;;;5073683;28;20183;-73
2022/01/16 07:28:15;;;;;;;6.80;4.20;;;0.90;83.10;;;;;;5070888;28;20187;-73
2022/01/16 07:30:42;;;;;;;4.10;3.63;;;1.20;83.70;;;;;;5072015;28;20215;-73
2022/01/16 07:33:08;;;;;;;13.87;5.73;;;1.60;84.60;;;;;;5073441;28;20174;-72
2022/01/16 07:35:36;;;;;;;7.50;5.63;;;2.00;83.10;;;;;;5071778;28;20217;-73
2022/01/16 07:38:03;;;;;;;9.00;5.50;;;2.30;82.60;;;;;;5071777;28;20183;-72
2022/01/16 07:40:29;;;;;;;9.27;6.20;;;2.80;83.40;;;;;;5068561;28;20616;-72
2022/01/16 07:42:56;;;;;;;13.03;6.80;;;3.40;83.90;;;;;;5071518;28;20189;-72
2022/01/16 07:45:22;;;;;;;9.83;6.07;;;4.10;83.10;;;;;;5071615;28;20183;-72
2022/01/16 07:47:48;;;;;;;12.20;7.30;;;4.80;82.20;;;;;;5073156;28;20174;-72
2022/01/16 07:50:15;;;;;;;10.17;6.13;;;5.50;81.40;;;;;;5069952;28;20703;-71
2022/01/16 07:52:41;;;;;;;13.20;6.60;;;6.30;80.20;;;;;;5071503;28;20194;-71
2022/01/16 07:55:08;;;;;;;9.93;6.30;;;7.10;78.80;;;;;;5065104;28;20296;-71
2022/01/16 07:57:34;;;;;;;9.13;6.47;;;7.80;75.30;;;;;;5077548;28;20285;-70
2022/01/16 07:59:59;;;;;;;13.33;8.07;;;8.40;72.80;;;;;;5074958;28;20626;-73
2022/01/16 08:02:26;;;;;;;12.80;7.93;;;8.90;71.70;;;;;;5068515;28;20942;-75
2022/01/16 08:04:52;;;;;;;18.97;8.93;;;9.30;69.20;;;;;;5074382;28;20171;-74
2022/01/16 08:07:18;;;;;;;11.83;8.50;;;9.40;67.10;;;;;;5079682;28;20185;-73
2022/01/16 08:09:43;;;;;;;15.20;8.70;;;9.40;66.20;;;;;;5074129;28;20253;-73
2022/01/16 08:12:09;;;;;;;14.97;8.77;;;9.10;65.20;;;;;;5064298;28;20340;-73
2022/01/16 08:14:35;;;;;;;19.20;9.30;;;8.80;65.70;;;;;;5067540;28;20186;-73
2022/01/16 08:17:02;;;;;;;16.67;10.20;;;8.60;66.00;;;;;;5071001;28;20193;-76
2022/01/16 08:19:28;;;;;;;14.50;9.07;;;8.20;65.80;;;;;;5070873;28;20847;-75
2022/01/16 08:21:54;;;;;;;17.50;10.33;;;7.90;66.30;;;;;;5066157;28;20190;-72
2022/01/16 08:24:20;;;;;;;14.57;8.93;;;7.50;66.60;;;;;;5070297;28;20175;-71
2022/01/16 08:26:46;;;;;;;15.43;8.70;;;7.20;67.30;;;;;;5065408;28;20187;-71
2022/01/16 08:29:12;;;;;;;10.77;7.63;;;7.00;67.70;;;;;;5067518;28;20191;-72
2022/01/16 08:31:37;;;;;;;12.27;6.57;;;6.90;68.40;;;;;;5074983;28;20221;-71
2022/01/16 08:34:03;;;;;;;7.50;5.70;;;6.80;69.00;;;;;;5067501;28;20665;-74
2022/01/16 08:36:29;;;;;;;7.97;6.50;;;6.70;68.80;;;;;;5073100;28;20186;-74
2022/01/16 08:38:55;;;;;;;7.47;6.03;;;6.80;68.80;;;;;;5071562;28;20244;-74
2022/01/16 08:41:24;;;;;;;8.10;5.93;;;6.80;69.00;;;;;;5069455;28;20191;-75
2022/01/16 08:43:50;;;;;;;7.37;5.93;;;6.80;69.20;;;;;;5072259;28;20182;-76
2022/01/16 08:46:16;;;;;;;7.40;5.43;;;6.90;69.00;;;;;;5071086;28;20182;-74
2022/01/16 08:48:42;;;;;;;8.53;6.30;;;7.10;69.50;;;;;;5063986;28;20656;-75
2022/01/16 08:51:07;;;;;;;10.77;6.00;;;7.50;69.50;;;;;;5068722;28;20297;-75
2022/01/16 08:53:34;;;;;;;9.73;6.10;;;8.00;68.40;;;;;;5064807;28;20180;-74
2022/01/16 08:56:00;;;;;;;11.70;6.13;;;8.30;67.50;;;;;;5068153;28;20175;-74
2022/01/16 08:58:27;;;;;;;5.10;4.63;;;8.80;67.30;;;;;;5049815;28;20211;-72
2022/01/16 09:00:53;;;;;;;4.97;4.47;;;9.40;67.30;;;;;;5074271;28;20248;-73
2022/01/16 09:03:20;;;;;;;7.10;5.20;;;10.10;67.40;;;;;;5072025;28;20255;-74
2022/01/16 09:05:46;;;;;;;7.80;6.10;;;10.80;66.80;;;;;;5074114;28;20253;-74
2022/01/16 09:08:16;;;;;;;9.00;6.07;;;11.70;64.70;;;;;;5063433;28;20252;-74
2022/01/16 09:10:42;;;;;;;10.95;7.15;;;12.50;63.30;;;;;;5069919;28;20210;-74
2022/01/16 09:13:11;;;;;;;8.07;6.18;;;13.40;62.20;;;;;;5066195;28;20675;-74
2022/01/16 09:15:40;;;;;;;16.05;7.32;;;14.10;61.50;;;;;;5050303;28;20178;-73
2022/01/16 09:18:06;;;;;;;8.93;6.63;;;14.60;59.10;;;;;;5052169;28;20667;-74
2022/01/16 09:20:33;;;;;;;9.05;7.22;;;15.00;56.90;;;;;;5054489;28;20278;-75
2022/01/16 09:22:59;;;;;;;15.75;7.50;;;15.10;55.70;;;;;;5070690;28;20762;-74
2022/01/16 09:25:25;;;;;;;8.98;6.45;;;15.20;55.80;;;;;;5067477;28;20190;-74
2022/01/16 09:27:51;;;;;;;10.15;6.63;;;15.40;56.30;;;;;;5067260;28;20179;-74
2022/01/16 09:30:17;;;;;;;7.72;6.90;;;15.80;56.50;;;;;;5071821;28;20367;-74
2022/01/16 09:32:43;;;;;;;10.25;7.82;;;16.20;55.30;;;;;;5049737;28;20278;-78
2022/01/16 09:35:10;;;;;;;10.55;7.07;;;16.60;54.70;;;;;;5068376;28;20983;-74
2022/01/16 09:37:36;;;;;;;9.32;7.03;;;16.80;53.00;;;;;;5054262;28;20187;-74
2022/01/16 09:40:04;;;;;;;8.13;7.30;;;16.90;53.40;;;;;;5071804;28;20667;-75
2022/01/16 09:42:30;;;;;;;9.43;6.95;;;17.20;53.70;;;;;;5071045;28;20273;-73
2022/01/16 09:44:56;;;;;;;7.13;6.35;;;17.60;53.80;;;;;;5072062;28;20259;-74
2022/01/16 09:47:22;;;;;;;8.23;6.80;;;17.90;52.70;;;;;;5067383;28;20690;-74
2022/01/16 09:49:48;;;;;;;9.18;6.25;;;18.20;51.90;;;;;;5069977;28;20186;-74
2022/01/16 09:52:14;;;;;;;8.98;6.32;;;18.60;51.20;;;;;;5067916;28;20314;-74
2022/01/16 09:54:40;;;;;;;7.55;6.03;;;18.90;49.60;;;;;;5067909;28;20182;-73
2022/01/16 09:57:06;;;;;;;6.90;6.25;;;18.70;48.50;;;;;;5065746;28;20471;-74
2022/01/16 09:59:33;;;;;;;8.23;5.93;;;18.50;50.20;;;;;;5067224;28;20178;-75
2022/01/16 10:01:59;;;;;;;5.95;5.45;;;17.90;50.40;;;;;;5067416;28;20211;-74
2022/01/16 10:04:31;;;;;;;7.03;5.82;;;17.80;51.30;;;;;;5070137;28;20182;-74
2022/01/16 10:07:03;;;;;;;10.90;5.53;;;18.10;51.90;;;;;;5050301;28;20289;-74
2022/01/16 10:09:28;;;;;;;6.63;6.03;;;18.30;51.30;;;;;;5069069;28;20248;-73
2022/01/16 10:11:57;;;;;;;7.40;6.53;;;18.70;50.40;;;;;;5069348;28;20214;-74
2022/01/16 10:14:29;;;;;;;7.20;6.60;;;19.00;50.70;;;;;;5047648;28;20183;-74
2022/01/16 10:16:55;;;;;;;8.52;6.05;;;19.40;50.40;;;;;;5051808;28;20179;-74
2022/01/16 10:19:26;;;;;;;8.25;6.28;;;19.70;50.10;;;;;;5067882;28;20300;-74
2022/01/16 10:21:54;;;;;;;6.85;6.18;;;20.10;50.00;;;;;;5066331;28;20187;-74
2022/01/16 10:24:28;;;;;;;6.30;5.70;;;20.30;46.50;;;;;;5057492;28;20236;-74
2022/01/16 10:27:09;;;;;;;6.82;6.30;;;20.40;48.80;;;;;;5048564;28;20182;-74
2022/01/16 10:29:56;;;;;;;6.90;6.00;;;20.60;48.00;;;;;;5069449;28;20602;-74
2022/01/16 10:32:23;;;;;;;11.65;7.25;;;20.70;46.80;;;;;;5056028;28;20182;-73
2022/01/16 10:35:12;;;;;;;7.45;6.40;;;20.50;46.60;;;;;;5069765;28;20179;-75
2022/01/16 10:37:41;;;;;;;8.68;6.63;;;20.40;47.00;;;;;;5069835;28;20203;-74
2022/01/16 10:40:19;;;;;;;9.65;6.45;;;20.00;47.00;;;;;;5067045;28;20557;-75
2022/01/16 10:42:55;;;;;;;6.68;6.10;;;19.70;47.00;;;;;;5067378;28;20186;-75
2022/01/16 10:45:27;;;;;;;7.07;6.47;;;19.60;47.80;;;;;;5072963;28;20178;-75
2022/01/16 10:47:58;;;;;;;6.80;6.20;;;19.70;49.50;;;;;;5073301;28;20187;-76
2022/01/16 10:50:26;;;;;;;10.57;6.82;;;20.00;49.20;;;;;;5066639;28;20218;-75
2022/01/16 10:52:53;;;;;;;6.97;6.10;;;20.30;48.40;;;;;;5069609;28;20190;-77
2022/01/16 10:55:23;;;;;;;7.13;6.50;;;20.70;47.90;;;;;;5052110;28;20179;-76
2022/01/16 10:57:49;;;;;;;10.90;7.18;;;21.00;47.90;;;;;;5066930;28;20195;-74
2022/01/16 11:00:21;;;;;;;9.80;7.18;;;21.40;46.10;;;;;;5067109;28;20182;-76
2022/01/16 11:02:51;;;;;;;7.80;6.57;;;21.50;47.80;;;;;;5073689;28;20174;-75
2022/01/16 11:05:20;;;;;;;8.50;7.20;;;21.50;45.60;;;;;;5068284;28;20183;-74
2022/01/16 11:07:54;;;;;;;7.05;6.35;;;21.10;46.90;;;;;;5070752;28;20225;-75
2022/01/16 11:10:36;;;;;;;10.57;7.43;;;20.80;47.10;;;;;;5069044;28;20217;-75
2022/01/16 11:13:09;;;;;;;11.95;6.63;;;20.90;47.00;;;;;;5073813;28;20210;-75
2022/01/16 11:15:38;;;;;;;6.97;6.28;;;21.10;46.50;;;;;;5053750;28;20688;-75
2022/01/16 11:18:05;;;;;;;8.00;7.20;;;21.30;46.40;;;;;;5070281;28;20263;-75
2022/01/16 11:20:35;;;;;;;8.68;7.38;;;21.30;45.40;;;;;;5068774;28;20184;-73
2022/01/16 11:23:06;;;;;;;9.90;7.75;;;21.20;45.90;;;;;;5071087;28;20183;-74
2022/01/16 11:25:36;;;;;;;9.40;8.15;;;20.70;46.20;;;;;;5069069;28;20194;-76
2022/01/16 11:28:08;;;;;;;11.05;8.05;;;20.20;45.50;;;;;;5071207;28;20910;-75
2022/01/16 11:30:37;;;;;;;9.65;7.53;;;19.60;45.90;;;;;;5072843;28;20446;-75
2022/01/16 11:33:03;;;;;;;10.65;7.55;;;19.20;48.00;;;;;;5070861;28;20238;-76
2022/01/16 11:35:31;;;;;;;7.60;6.70;;;19.00;48.30;;;;;;5052492;28;20270;-75
2022/01/16 11:37:57;;;;;;;8.40;7.03;;;19.10;47.00;;;;;;5054695;28;20182;-74
2022/01/16 11:40:44;;;;;;;8.32;7.35;;;19.40;47.80;;;;;;5077561;28;20187;-75
2022/01/16 11:43:16;;;;;;;9.48;6.95;;;19.80;48.00;;;;;;5057013;28;20189;-75
2022/01/16 11:45:55;;;;;;;10.60;7.65;;;20.30;47.70;;;;;;5070560;28;20179;-76
2022/01/16 11:48:50;;;;;;;11.00;7.70;;;20.60;46.60;;;;;;5072068;28;20265;-76
2022/01/16 11:54:15;;;;;;;7.80;6.82;;;20.70;45.60;;;;;;5071169;28;20182;-76
2022/01/16 11:56:41;;;;;;;8.55;7.50;;;20.90;46.40;;;;;;5066648;28;20586;-75
2022/01/16 11:59:28;;;;;;;8.07;7.13;;;21.00;47.00;;;;;;5071206;28;20212;-76
2022/01/16 12:02:00;;;;;;;7.82;7.10;;;21.20;44.60;;;;;;5076125;28;20884;-77
2022/01/16 12:04:29;;;;;;;9.85;7.93;;;21.50;46.60;;;;;;5081035;28;20178;-75
2022/01/16 12:07:21;;;;;;;8.52;7.63;;;21.70;44.90;;;;;;5052123;28;20764;-75
2022/01/16 12:09:51;;;;;;;10.80;8.18;;;21.60;43.80;;;;;;5027193;28;20759;-79
2022/01/16 12:12:16;;;;;;;10.50;7.72;;;21.10;45.70;;;;;;5012891;28;20230;-78
2022/01/16 12:15:17;;;;;;;9.13;8.25;;;20.70;44.80;;;;;;5009763;28;20188;-77
2022/01/16 12:17:47;;;;;;;10.10;7.97;;;20.00;45.00;;;;;;5031926;28;20628;-76
2022/01/16 12:20:16;;;;;;;9.73;8.10;;;19.30;45.60;;;;;;5028856;28;20283;-77
2022/01/16 12:22:44;;;;;;;8.10;7.13;;;18.80;46.00;;;;;;5013878;28;20203;-78
2022/01/16 12:25:25;;;;;;;13.80;7.90;;;18.50;46.80;;;;;;5011687;28;20191;-76
2022/01/16 12:27:51;;;;;;;7.93;7.18;;;18.40;47.90;;;;;;5031738;28;20658;-75
2022/01/16 12:30:25;;;;;;;10.32;8.45;;;18.40;47.90;;;;;;5031606;28;20640;-77
2022/01/16 12:32:55;;;;;;;9.30;6.93;;;18.40;46.70;;;;;;5027819;28;20216;-76
2022/01/16 12:35:58;;;;;;;8.93;7.90;;;18.50;47.50;;;;;;5030395;28;20283;-76
2022/01/16 12:38:53;;;;;;;9.40;7.45;;;18.70;46.50;;;;;;4976628;28;20189;-77
2022/01/16 12:41:45;;;;;;;8.93;8.02;;;18.60;47.70;;;;;;4980898;28;20198;-76
2022/01/16 12:44:16;;;;;;;11.05;7.55;;;18.30;47.40;;;;;;4979959;28;20183;-77
2022/01/16 12:46:48;;;;;;;10.77;8.10;;;18.10;48.10;;;;;;4995913;28;20307;-78
2022/01/16 12:49:20;;;;;;;9.55;7.72;;;18.20;48.40;;;;;;5006127;28;20738;-76
2022/01/16 12:51:48;;;;;;;11.00;7.45;;;18.40;48.00;;;;;;5010585;28;20220;-75
2022/01/16 12:54:25;;;;;;;8.45;7.18;;;18.60;47.90;;;;;;5004167;28;20887;-75
2022/01/16 12:56:57;;;;;;;10.35;8.50;;;18.80;46.20;;;;;;5000198;28;20208;-75
2022/01/16 12:59:25;;;;;;;11.40;8.27;;;18.80;47.60;;;;;;5004326;28;20193;-75
2022/01/16 13:01:55;;;;;;;15.18;8.95;;;18.70;47.40;;;;;;5003303;28;20204;-76
2022/01/16 13:04:34;;;;;;;11.00;8.05;;;18.50;47.40;;;;;;5006561;28;20212;-75
2022/01/16 13:07:09;;;;;;;14.50;8.48;;;18.30;47.70;;;;;;5000037;28;20197;-76
2022/01/16 13:09:35;;;;;;;13.32;9.45;;;18.20;46.50;;;;;;5004462;28;20193;-75
2022/01/16 13:12:03;;;;;;;11.43;8.77;;;18.10;46.70;;;;;;5009834;28;20215;-77
2022/01/16 13:14:34;;;;;;;12.05;9.30;;;18.00;48.50;;;;;;5053035;28;20195;-75
2022/01/16 13:17:03;;;;;;;11.25;8.85;;;17.90;48.10;;;;;;5071730;28;20174;-74
2022/01/16 13:19:38;;;;;;;14.48;9.30;;;17.80;48.60;;;;;;5065323;28;20375;-75
2022/01/16 13:22:12;;;;;;;13.88;10.18;;;17.60;48.40;;;;;;5065997;28;20661;-73
2022/01/16 13:24:47;;;;;;;13.70;9.38;;;17.40;48.60;;;;;;5064402;28;20695;-75
2022/01/16 13:27:24;;;;;;;12.40;9.45;;;17.30;48.70;;;;;;5069995;28;20233;-76
2022/01/16 13:29:58;;;;;;;13.48;9.30;;;17.00;48.30;;;;;;5068317;28;20185;-75
2022/01/16 13:32:34;;;;;;;12.55;9.13;;;16.80;48.90;;;;;;5063864;28;20211;-75
2022/01/16 13:35:05;;;;;;;11.68;9.20;;;16.50;49.20;;;;;;5059967;28;20193;-76
2022/01/16 13:37:30;;;;;;;13.90;9.80;;;16.20;49.80;;;;;;5062541;28;20185;-76
2022/01/16 13:40:08;;;;;;;13.10;9.40;;;15.90;48.70;;;;;;5065612;28;20309;-78
2022/01/16 13:43:02;;;;;;;11.07;8.95;;;15.70;49.50;;;;;;5063700;28;20958;-76
2022/01/16 13:45:29;;;;;;;13.02;9.77;;;15.60;50.90;;;;;;5065958;28;20179;-74